createdAt,value
2023-05-10T00:02:00.822Z,6.43
2023-05-10T00:07:02.643Z,6.37
2023-05-10T00:12:04.539Z,6.31
2023-05-10T00:17:06.463Z,6.29
2023-05-10T00:22:08.227Z,6.24
2023-05-10T00:27:10.070Z,6.20
2023-05-10T00:32:11.760Z,6.16
2023-05-10T00:37:13.535Z,6.10
2023-05-10T00:42:15.227Z,6.04
2023-05-10T00:47:19.234Z,6.04
2023-05-10T00:52:21.399Z,6.02
2023-05-10T00:57:23.600Z,6.04
2023-05-10T01:02:25.576Z,6.00
2023-05-10T01:07:27.698Z,6.01
2023-05-10T01:12:29.571Z,6.01
2023-05-10T01:17:31.838Z,6.02
2023-05-10T01:23:11.602Z,6.03
2023-05-10T01:28:39.297Z,5.99
2023-05-10T01:33:52.853Z,5.91
2023-05-10T01:39:06.313Z,5.78
2023-05-10T01:44:16.788Z,5.66
2023-05-10T01:49:26.937Z,5.57
2023-05-10T01:54:30.306Z,5.46
2023-05-10T01:59:38.239Z,5.39
2023-05-10T02:04:41.776Z,5.35
2023-05-10T02:09:48.869Z,5.33
2023-05-10T02:14:53.782Z,5.34
2023-05-10T02:19:57.984Z,5.38
2023-05-10T02:25:01.870Z,5.42
2023-05-10T02:30:04.598Z,5.42
2023-05-10T02:35:08.303Z,5.38
2023-05-10T02:40:12.900Z,5.32
2023-05-10T02:45:19.337Z,5.24
2023-05-10T02:50:22.550Z,5.15
2023-05-10T02:55:36.349Z,5.02
2023-05-10T03:00:38.526Z,4.96
2023-05-10T03:05:40.506Z,5.01
2023-05-10T03:10:51.586Z,5.07
2023-05-10T03:16:37.826Z,5.12
2023-05-10T03:21:46.009Z,5.15
2023-05-10T03:26:49.658Z,5.15
2023-05-10T03:31:53.100Z,5.20
2023-05-10T03:36:55.297Z,5.22
2023-05-10T03:41:58.027Z,5.27
2023-05-10T03:47:00.399Z,5.32
2023-05-10T03:52:02.550Z,5.34
2023-05-10T03:57:05.215Z,5.36
2023-05-10T04:02:07.189Z,5.40
2023-05-10T04:07:10.764Z,5.46
2023-05-10T04:12:12.519Z,5.59
2023-05-10T04:17:14.323Z,5.80
2023-05-10T04:22:15.978Z,6.04
2023-05-10T04:27:17.655Z,6.29
2023-05-10T04:32:20.071Z,6.54
2023-05-10T04:37:23.932Z,6.81
2023-05-10T04:42:25.764Z,7.06
2023-05-10T04:47:27.487Z,7.36
2023-05-10T04:52:29.144Z,7.64
2023-05-10T04:57:30.853Z,7.92
2023-05-10T05:02:32.580Z,8.19
2023-05-10T05:07:34.519Z,8.40
2023-05-10T05:12:40.389Z,8.60
2023-05-10T05:17:45.709Z,8.84
2023-05-10T05:22:47.396Z,9.06
2023-05-10T05:27:49.041Z,9.30
2023-05-10T05:32:50.797Z,9.54
2023-05-10T05:37:52.871Z,9.77
2023-05-10T05:42:54.645Z,9.98
2023-05-10T05:47:56.986Z,10.23
2023-05-10T05:52:58.949Z,10.46
2023-05-10T05:58:00.690Z,10.69
2023-05-10T06:03:02.439Z,10.92
2023-05-10T06:08:04.427Z,11.17
2023-05-10T06:13:06.222Z,11.45
2023-05-10T06:18:08.093Z,11.76
2023-05-10T06:23:09.902Z,11.99
2023-05-10T06:28:11.603Z,12.21
2023-05-10T06:33:13.737Z,12.47
2023-05-10T06:38:16.197Z,12.74
2023-05-10T06:43:18.033Z,13.03
2023-05-10T06:48:19.744Z,13.31
2023-05-10T06:53:21.744Z,13.51
2023-05-10T06:58:23.640Z,13.72
2023-05-10T07:03:25.408Z,13.98
2023-05-10T07:08:27.051Z,14.21
2023-05-10T07:13:28.794Z,14.46
2023-05-10T07:18:30.725Z,14.74
2023-05-10T07:23:32.630Z,14.99
2023-05-10T07:28:41.820Z,15.22
2023-05-10T07:34:01.218Z,15.45
2023-05-10T07:39:03.203Z,15.65
2023-05-10T07:44:05.733Z,15.84
2023-05-10T07:49:07.377Z,16.00
2023-05-10T07:54:09.110Z,16.21
2023-05-10T07:59:12.584Z,16.39
2023-05-10T08:04:14.615Z,16.55
2023-05-10T08:09:16.902Z,16.70
2023-05-10T08:14:19.073Z,16.87
2023-05-10T08:19:22.338Z,17.07
2023-05-10T08:24:24.104Z,17.22
2023-05-10T08:29:26.787Z,17.30
2023-05-10T08:34:32.011Z,17.43
2023-05-10T08:39:36.721Z,17.53
2023-05-10T08:44:38.475Z,17.62
2023-05-10T08:49:41.973Z,17.76
2023-05-10T08:54:44.067Z,17.88
2023-05-10T08:59:46.262Z,18.01
2023-05-10T09:04:50.123Z,18.16
2023-05-10T09:09:53.022Z,18.36
2023-05-10T09:14:56.284Z,18.62
2023-05-10T09:20:00.352Z,18.93
2023-05-10T09:25:13.529Z,19.08
2023-05-10T09:30:26.544Z,19.09
2023-05-10T09:35:31.242Z,19.40
2023-05-10T09:40:34.116Z,19.66
2023-05-10T09:45:38.507Z,19.56
2023-05-10T09:50:41.267Z,19.42
2023-05-10T09:55:45.917Z,19.34
2023-05-10T10:00:48.881Z,19.67
2023-05-10T10:05:51.346Z,19.81
2023-05-10T10:10:53.201Z,19.64
2023-05-10T10:15:55.702Z,19.78
2023-05-10T10:20:57.800Z,20.29
2023-05-10T10:26:01.147Z,20.64
2023-05-10T10:31:31.561Z,20.65
2023-05-10T10:36:40.454Z,20.14
2023-05-10T10:41:56.228Z,19.70
2023-05-10T10:47:14.126Z,19.73
2023-05-10T10:52:19.503Z,19.91
2023-05-10T10:57:22.739Z,19.91
2023-05-10T11:02:36.237Z,19.84
2023-05-10T11:07:53.806Z,20.08
2023-05-10T11:13:07.481Z,20.56
2023-05-10T11:18:25.933Z,20.79
2023-05-10T11:23:40.901Z,20.57
2023-05-10T11:28:48.273Z,20.38
2023-05-10T11:33:52.941Z,20.47
2023-05-10T11:38:56.177Z,20.28
2023-05-10T11:43:59.022Z,20.31
2023-05-10T11:49:05.517Z,20.57
2023-05-10T11:54:10.459Z,20.82
2023-05-10T11:59:15.856Z,20.72
2023-05-10T12:04:18.224Z,20.39
2023-05-10T12:09:31.556Z,20.55
2023-05-10T12:14:42.006Z,21.02
2023-05-10T12:19:44.820Z,21.54
2023-05-10T12:24:46.660Z,21.87
2023-05-10T12:29:49.264Z,21.80
2023-05-10T12:34:54.365Z,21.44
2023-05-10T12:39:56.236Z,21.21
2023-05-10T12:44:58.639Z,21.28
2023-05-10T12:50:02.636Z,21.37
2023-05-10T12:55:05.063Z,21.55
2023-05-10T13:05:46.672Z,22.27
2023-05-10T13:10:48.537Z,22.30
2023-05-10T13:15:50.278Z,22.74
2023-05-10T13:20:52.262Z,23.12
2023-05-10T13:25:54.100Z,23.23
2023-05-10T13:30:56.354Z,23.14
2023-05-10T13:35:58.349Z,22.93
2023-05-10T13:41:00.222Z,22.64
2023-05-10T13:46:02.204Z,22.41
2023-05-10T13:51:04.601Z,22.07
2023-05-10T13:56:07.624Z,21.57
2023-05-10T14:01:09.715Z,21.29
2023-05-10T14:06:11.991Z,21.01
2023-05-10T14:11:14.047Z,21.11
2023-05-10T14:16:16.139Z,20.94
2023-05-10T14:21:17.976Z,20.61
2023-05-10T14:26:20.109Z,20.30
2023-05-10T14:31:22.319Z,20.03
2023-05-10T14:36:24.657Z,19.83
2023-05-10T14:41:26.570Z,19.68
2023-05-10T14:46:29.047Z,19.91
2023-05-10T14:51:30.925Z,20.08
2023-05-10T14:56:33.123Z,19.99
2023-05-10T15:01:43.298Z,19.79
2023-05-10T15:06:46.097Z,19.66
2023-05-10T15:11:47.976Z,19.44
2023-05-10T15:17:08.394Z,19.42
2023-05-10T15:22:10.293Z,19.51
2023-05-10T15:27:12.255Z,19.63
2023-05-10T15:32:14.132Z,19.74
2023-05-10T15:37:16.047Z,19.86
2023-05-10T15:42:17.918Z,20.07
2023-05-10T15:47:19.918Z,20.57
2023-05-10T15:52:22.056Z,21.20
2023-05-10T15:57:24.181Z,21.74
2023-05-10T16:02:29.143Z,22.11
2023-05-10T16:07:31.081Z,22.02
2023-05-10T16:12:33.680Z,21.62
2023-05-10T16:17:35.655Z,21.25
2023-05-10T16:22:38.057Z,20.90
2023-05-10T16:27:40.137Z,20.62
2023-05-10T16:32:41.964Z,20.37
2023-05-10T16:37:43.895Z,20.18
2023-05-10T16:42:46.294Z,20.11
2023-05-10T16:47:48.316Z,20.04
2023-05-10T16:52:50.195Z,19.81
2023-05-10T16:57:52.030Z,19.53
2023-05-10T17:02:54.858Z,19.29
2023-05-10T17:07:56.920Z,18.98
2023-05-10T17:12:58.761Z,18.69
2023-05-10T17:18:00.523Z,18.40
2023-05-10T17:23:03.430Z,18.11
2023-05-10T17:28:05.557Z,17.84
2023-05-10T17:33:07.492Z,17.57
2023-05-10T17:38:09.427Z,17.28
2023-05-10T17:43:20.309Z,17.10
2023-05-10T17:48:22.048Z,17.00
2023-05-10T17:53:24.801Z,16.91
2023-05-10T17:58:26.700Z,16.72
2023-05-10T18:03:28.404Z,16.45
2023-05-10T18:08:30.743Z,16.19
2023-05-10T18:13:33.035Z,15.97
2023-05-10T18:18:35.822Z,15.78
2023-05-10T18:23:37.800Z,15.61
2023-05-10T18:28:39.584Z,15.48
2023-05-10T18:33:41.662Z,15.38
2023-05-10T18:38:43.543Z,15.25
2023-05-10T18:43:45.427Z,15.13
2023-05-10T18:48:47.511Z,14.98
2023-05-10T18:53:49.480Z,14.86
2023-05-10T18:58:51.389Z,14.79
2023-05-10T19:03:53.250Z,14.71
2023-05-10T19:08:55.129Z,14.62
2023-05-10T19:13:57.314Z,14.52
2023-05-10T19:19:02.362Z,14.46
2023-05-10T19:24:05.736Z,14.43
2023-05-10T19:29:07.800Z,14.40
2023-05-10T19:34:09.517Z,14.36
2023-05-10T19:39:14.329Z,14.30
2023-05-10T19:44:16.079Z,14.24
2023-05-10T19:49:19.253Z,14.17
2023-05-10T19:54:21.088Z,14.09
2023-05-10T19:59:23.498Z,14.03
2023-05-10T20:04:25.476Z,13.93
2023-05-10T20:09:27.143Z,13.81
2023-05-10T20:14:28.822Z,13.66
2023-05-10T20:19:30.508Z,13.54
2023-05-10T20:24:32.104Z,13.42
2023-05-10T20:29:33.792Z,13.29
2023-05-10T20:34:35.507Z,13.13
2023-05-10T20:39:37.181Z,12.97
2023-05-10T20:44:38.909Z,12.79
2023-05-10T20:49:40.638Z,12.59
2023-05-10T20:54:42.312Z,12.38
2023-05-10T20:59:43.994Z,12.17
2023-05-10T21:04:45.971Z,11.97
2023-05-10T21:09:48.354Z,11.80
2023-05-10T21:14:53.605Z,11.65
2023-05-10T21:19:55.653Z,11.54
2023-05-10T21:24:57.312Z,11.45
2023-05-10T21:29:59.040Z,11.35
2023-05-10T21:35:00.686Z,11.24
2023-05-10T21:40:04.707Z,11.13
2023-05-10T21:45:07.812Z,11.01
2023-05-10T21:50:11.639Z,10.88
2023-05-10T21:55:13.385Z,10.69
2023-05-10T22:00:16.327Z,10.52
2023-05-10T22:05:18.252Z,10.34
2023-05-10T22:10:20.380Z,10.16
2023-05-10T22:15:22.164Z,9.99
2023-05-10T22:20:23.848Z,9.82
2023-05-10T22:25:25.634Z,9.68
2023-05-10T22:30:27.345Z,9.56
2023-05-10T22:35:29.255Z,9.41
2023-05-10T22:40:31.444Z,9.24
2023-05-10T22:45:33.197Z,9.03
2023-05-10T22:50:36.808Z,8.84
2023-05-10T22:55:38.588Z,8.69
2023-05-10T23:00:40.341Z,8.61
2023-05-10T23:05:42.156Z,8.60
2023-05-10T23:10:48.372Z,8.59
2023-05-10T23:15:53.957Z,8.55
2023-05-10T23:20:55.967Z,8.51
2023-05-10T23:25:57.599Z,8.47
2023-05-10T23:30:59.441Z,8.44
2023-05-10T23:36:01.157Z,8.42
2023-05-10T23:41:16.132Z,8.45
2023-05-10T23:46:19.781Z,8.51
2023-05-10T23:51:23.106Z,8.56
2023-05-10T23:56:25.022Z,8.62
